sensor_id;sensor_type;location;lat;lon;timestamp;temperature;humidity
39777;DHT22;25453;48.162;14.510;2023-02-01T00:00:24;5.70;74.50
39777;DHT22;25453;48.162;14.510;2023-02-01T00:02:51;5.70;74.60
39777;DHT22;25453;48.162;14.510;2023-02-01T00:05:18;5.60;74.80
39777;DHT22;25453;48.162;14.510;2023-02-01T00:07:46;5.60;74.90
39777;DHT22;25453;48.162;14.510;2023-02-01T00:10:13;5.60;75.00
39777;DHT22;25453;48.162;14.510;2023-02-01T00:12:40;5.60;75.10
39777;DHT22;25453;48.162;14.510;2023-02-01T00:15:07;5.60;75.20
39777;DHT22;25453;48.162;14.510;2023-02-01T00:17:34;5.60;75.30
39777;DHT22;25453;48.162;14.510;2023-02-01T00:20:02;5.60;75.40
39777;DHT22;25453;48.162;14.510;2023-02-01T00:22:29;5.60;75.60
39777;DHT22;25453;48.162;14.510;2023-02-01T00:24:56;5.60;75.50
39777;DHT22;25453;48.162;14.510;2023-02-01T00:27:23;5.60;75.60
39777;DHT22;25453;48.162;14.510;2023-02-01T00:29:50;5.50;75.60
39777;DHT22;25453;48.162;14.510;2023-02-01T00:32:17;5.50;75.60
39777;DHT22;25453;48.162;14.510;2023-02-01T00:34:44;5.50;75.70
39777;DHT22;25453;48.162;14.510;2023-02-01T00:37:11;5.50;75.80
39777;DHT22;25453;48.162;14.510;2023-02-01T00:39:38;5.50;76.10
39777;DHT22;25453;48.162;14.510;2023-02-01T00:42:04;5.50;76.10
39777;DHT22;25453;48.162;14.510;2023-02-01T00:44:31;5.50;76.40
39777;DHT22;25453;48.162;14.510;2023-02-01T00:47:01;5.60;76.50
39777;DHT22;25453;48.162;14.510;2023-02-01T00:49:28;5.60;76.50
39777;DHT22;25453;48.162;14.510;2023-02-01T00:51:55;5.60;76.50
39777;DHT22;25453;48.162;14.510;2023-02-01T00:54:22;5.70;76.40
39777;DHT22;25453;48.162;14.510;2023-02-01T00:56:49;5.70;76.50
39777;DHT22;25453;48.162;14.510;2023-02-01T00:59:16;5.70;76.50
39777;DHT22;25453;48.162;14.510;2023-02-01T01:01:43;5.70;76.50
39777;DHT22;25453;48.162;14.510;2023-02-01T01:04:10;5.70;76.60
39777;DHT22;25453;48.162;14.510;2023-02-01T01:06:37;5.70;76.70
39777;DHT22;25453;48.162;14.510;2023-02-01T01:09:05;5.70;76.80
39777;DHT22;25453;48.162;14.510;2023-02-01T01:11:34;5.70;76.80
39777;DHT22;25453;48.162;14.510;2023-02-01T01:14:02;5.70;76.90
39777;DHT22;25453;48.162;14.510;2023-02-01T01:16:29;5.70;77.00
39777;DHT22;25453;48.162;14.510;2023-02-01T01:18:57;5.70;77.00
39777;DHT22;25453;48.162;14.510;2023-02-01T01:21:24;5.70;77.10
39777;DHT22;25453;48.162;14.510;2023-02-01T01:23:51;5.70;77.10
39777;DHT22;25453;48.162;14.510;2023-02-01T01:26:20;5.70;77.20
39777;DHT22;25453;48.162;14.510;2023-02-01T01:28:47;5.70;77.20
39777;DHT22;25453;48.162;14.510;2023-02-01T01:31:15;5.70;77.30
39777;DHT22;25453;48.162;14.510;2023-02-01T01:33:42;5.70;77.30
39777;DHT22;25453;48.162;14.510;2023-02-01T01:36:10;5.70;77.20
39777;DHT22;25453;48.162;14.510;2023-02-01T01:38:38;5.70;77.20
39777;DHT22;25453;48.162;14.510;2023-02-01T01:41:06;5.70;77.20
39777;DHT22;25453;48.162;14.510;2023-02-01T01:46:20;5.70;77.10
39777;DHT22;25453;48.162;14.510;2023-02-01T01:48:49;5.70;77.30
39777;DHT22;25453;48.162;14.510;2023-02-01T01:51:17;5.70;77.30
39777;DHT22;25453;48.162;14.510;2023-02-01T01:54:29;5.70;77.40
39777;DHT22;25453;48.162;14.510;2023-02-01T01:56:36;5.70;77.40
39777;DHT22;25453;48.162;14.510;2023-02-01T01:59:03;5.70;77.40
39777;DHT22;25453;48.162;14.510;2023-02-01T02:01:32;5.70;77.30
39777;DHT22;25453;48.162;14.510;2023-02-01T02:03:59;5.70;77.20
39777;DHT22;25453;48.162;14.510;2023-02-01T02:06:35;5.70;77.20
39777;DHT22;25453;48.162;14.510;2023-02-01T02:09:03;5.70;77.20
39777;DHT22;25453;48.162;14.510;2023-02-01T02:11:32;5.70;77.40
39777;DHT22;25453;48.162;14.510;2023-02-01T02:14:00;5.70;77.30
39777;DHT22;25453;48.162;14.510;2023-02-01T02:24:14;5.80;77.10
39777;DHT22;25453;48.162;14.510;2023-02-01T02:32:38;5.90;77.20
39777;DHT22;25453;48.162;14.510;2023-02-01T02:35:24;5.90;77.20
39777;DHT22;25453;48.162;14.510;2023-02-01T02:37:55;5.90;77.00
39777;DHT22;25453;48.162;14.510;2023-02-01T02:43:12;5.90;76.90
39777;DHT22;25453;48.162;14.510;2023-02-01T02:46:02;5.90;76.90
39777;DHT22;25453;48.162;14.510;2023-02-01T02:48:55;5.90;76.90
39777;DHT22;25453;48.162;14.510;2023-02-01T02:51:29;5.90;76.90
39777;DHT22;25453;48.162;14.510;2023-02-01T02:54:18;5.90;76.80
39777;DHT22;25453;48.162;14.510;2023-02-01T02:57:06;5.90;76.70
39777;DHT22;25453;48.162;14.510;2023-02-01T02:59:52;5.90;76.70
39777;DHT22;25453;48.162;14.510;2023-02-01T03:02:38;5.90;76.60
39777;DHT22;25453;48.162;14.510;2023-02-01T03:05:24;6.00;76.60
39777;DHT22;25453;48.162;14.510;2023-02-01T03:07:57;6.00;76.60
39777;DHT22;25453;48.162;14.510;2023-02-01T03:13:12;6.00;76.60
39777;DHT22;25453;48.162;14.510;2023-02-01T03:15:49;6.00;76.50
39777;DHT22;25453;48.162;14.510;2023-02-01T03:18:30;6.00;76.60
39777;DHT22;25453;48.162;14.510;2023-02-01T03:20:58;6.00;76.70
39777;DHT22;25453;48.162;14.510;2023-02-01T03:23:28;6.00;76.70
39777;DHT22;25453;48.162;14.510;2023-02-01T03:25:56;6.10;76.60
39777;DHT22;25453;48.162;14.510;2023-02-01T03:28:24;6.10;76.50
39777;DHT22;25453;48.162;14.510;2023-02-01T03:30:52;6.10;76.40
39777;DHT22;25453;48.162;14.510;2023-02-01T03:33:21;6.10;76.40
39777;DHT22;25453;48.162;14.510;2023-02-01T03:38:23;6.10;76.20
39777;DHT22;25453;48.162;14.510;2023-02-01T03:40:52;6.10;76.20
39777;DHT22;25453;48.162;14.510;2023-02-01T03:43:20;6.20;76.20
39777;DHT22;25453;48.162;14.510;2023-02-01T03:45:50;6.20;76.00
39777;DHT22;25453;48.162;14.510;2023-02-01T03:48:19;6.20;76.10
39777;DHT22;25453;48.162;14.510;2023-02-01T03:50:49;6.20;76.10
39777;DHT22;25453;48.162;14.510;2023-02-01T03:53:18;6.20;76.00
39777;DHT22;25453;48.162;14.510;2023-02-01T03:55:47;6.30;76.10
39777;DHT22;25453;48.162;14.510;2023-02-01T03:58:21;6.30;76.00
39777;DHT22;25453;48.162;14.510;2023-02-01T04:03:20;6.30;75.60
39777;DHT22;25453;48.162;14.510;2023-02-01T04:05:48;6.30;75.60
39777;DHT22;25453;48.162;14.510;2023-02-01T04:08:16;6.40;75.50
39777;DHT22;25453;48.162;14.510;2023-02-01T04:10:42;6.40;75.30
39777;DHT22;25453;48.162;14.510;2023-02-01T04:13:10;6.40;75.40
39777;DHT22;25453;48.162;14.510;2023-02-01T04:15:38;6.40;75.30
39777;DHT22;25453;48.162;14.510;2023-02-01T04:18:05;6.40;75.00
39777;DHT22;25453;48.162;14.510;2023-02-01T04:20:35;6.40;75.00
39777;DHT22;25453;48.162;14.510;2023-02-01T04:23:02;6.40;75.00
39777;DHT22;25453;48.162;14.510;2023-02-01T04:25:29;6.40;74.70
39777;DHT22;25453;48.162;14.510;2023-02-01T04:27:56;6.40;74.50
39777;DHT22;25453;48.162;14.510;2023-02-01T04:30:23;6.40;74.50
39777;DHT22;25453;48.162;14.510;2023-02-01T04:32:51;6.40;74.30
39777;DHT22;25453;48.162;14.510;2023-02-01T04:35:17;6.40;74.30
39777;DHT22;25453;48.162;14.510;2023-02-01T04:37:44;6.40;74.10
39777;DHT22;25453;48.162;14.510;2023-02-01T04:40:11;6.40;74.10
39777;DHT22;25453;48.162;14.510;2023-02-01T04:42:38;6.40;74.00
39777;DHT22;25453;48.162;14.510;2023-02-01T04:45:05;6.40;74.00
39777;DHT22;25453;48.162;14.510;2023-02-01T04:47:33;6.30;74.00
39777;DHT22;25453;48.162;14.510;2023-02-01T04:49:59;6.30;73.90
39777;DHT22;25453;48.162;14.510;2023-02-01T04:52:26;6.30;73.90
39777;DHT22;25453;48.162;14.510;2023-02-01T04:54:54;6.30;74.00
39777;DHT22;25453;48.162;14.510;2023-02-01T04:57:25;6.30;74.00
39777;DHT22;25453;48.162;14.510;2023-02-01T04:59:52;6.30;73.80
39777;DHT22;25453;48.162;14.510;2023-02-01T05:02:20;6.30;73.70
39777;DHT22;25453;48.162;14.510;2023-02-01T05:04:46;6.30;73.80
39777;DHT22;25453;48.162;14.510;2023-02-01T05:07:13;6.30;73.80
39777;DHT22;25453;48.162;14.510;2023-02-01T05:09:40;6.30;73.80
39777;DHT22;25453;48.162;14.510;2023-02-01T05:12:08;6.30;73.90
39777;DHT22;25453;48.162;14.510;2023-02-01T05:14:54;6.30;73.90
39777;DHT22;25453;48.162;14.510;2023-02-01T05:17:21;6.30;73.80
39777;DHT22;25453;48.162;14.510;2023-02-01T05:19:48;6.30;73.80
39777;DHT22;25453;48.162;14.510;2023-02-01T05:22:15;6.30;74.00
39777;DHT22;25453;48.162;14.510;2023-02-01T05:24:42;6.40;73.90
39777;DHT22;25453;48.162;14.510;2023-02-01T05:27:09;6.40;73.80
39777;DHT22;25453;48.162;14.510;2023-02-01T05:29:36;6.40;73.80
39777;DHT22;25453;48.162;14.510;2023-02-01T05:32:03;6.40;73.80
39777;DHT22;25453;48.162;14.510;2023-02-01T05:34:47;6.50;73.70
39777;DHT22;25453;48.162;14.510;2023-02-01T05:37:14;6.50;73.60
39777;DHT22;25453;48.162;14.510;2023-02-01T05:39:41;6.50;73.60
39777;DHT22;25453;48.162;14.510;2023-02-01T05:42:08;6.50;73.70
39777;DHT22;25453;48.162;14.510;2023-02-01T05:44:35;6.50;73.50
39777;DHT22;25453;48.162;14.510;2023-02-01T05:47:01;6.50;73.50
39777;DHT22;25453;48.162;14.510;2023-02-01T05:49:28;6.50;73.40
39777;DHT22;25453;48.162;14.510;2023-02-01T05:51:55;6.50;73.50
39777;DHT22;25453;48.162;14.510;2023-02-01T05:54:25;6.50;73.30
39777;DHT22;25453;48.162;14.510;2023-02-01T05:56:52;6.40;73.30
39777;DHT22;25453;48.162;14.510;2023-02-01T05:59:19;6.40;73.30
39777;DHT22;25453;48.162;14.510;2023-02-01T06:01:46;6.40;73.30
39777;DHT22;25453;48.162;14.510;2023-02-01T06:04:16;6.40;73.40
39777;DHT22;25453;48.162;14.510;2023-02-01T06:06:43;6.40;73.50
39777;DHT22;25453;48.162;14.510;2023-02-01T06:09:10;6.40;73.40
39777;DHT22;25453;48.162;14.510;2023-02-01T06:11:36;6.40;73.30
39777;DHT22;25453;48.162;14.510;2023-02-01T06:14:03;6.40;73.30
39777;DHT22;25453;48.162;14.510;2023-02-01T06:16:30;6.40;73.20
39777;DHT22;25453;48.162;14.510;2023-02-01T06:18:58;6.40;73.20
39777;DHT22;25453;48.162;14.510;2023-02-01T06:21:25;6.40;73.30
39777;DHT22;25453;48.162;14.510;2023-02-01T06:23:55;6.40;73.40
39777;DHT22;25453;48.162;14.510;2023-02-01T06:26:24;6.40;73.40
39777;DHT22;25453;48.162;14.510;2023-02-01T06:28:51;6.40;73.30
39777;DHT22;25453;48.162;14.510;2023-02-01T06:31:18;6.40;73.30
39777;DHT22;25453;48.162;14.510;2023-02-01T06:33:45;6.40;73.30
39777;DHT22;25453;48.162;14.510;2023-02-01T06:36:13;6.40;73.30
39777;DHT22;25453;48.162;14.510;2023-02-01T06:38:41;6.50;73.10
39777;DHT22;25453;48.162;14.510;2023-02-01T06:41:08;6.50;73.10
39777;DHT22;25453;48.162;14.510;2023-02-01T06:43:35;6.50;73.20
39777;DHT22;25453;48.162;14.510;2023-02-01T06:46:05;6.50;73.20
39777;DHT22;25453;48.162;14.510;2023-02-01T06:48:32;6.50;73.10
39777;DHT22;25453;48.162;14.510;2023-02-01T06:50:59;6.50;73.00
39777;DHT22;25453;48.162;14.510;2023-02-01T06:53:26;6.50;73.10
39777;DHT22;25453;48.162;14.510;2023-02-01T06:56:02;6.60;73.00
39777;DHT22;25453;48.162;14.510;2023-02-01T06:58:30;6.60;72.90
39777;DHT22;25453;48.162;14.510;2023-02-01T07:00:57;6.50;72.80
39777;DHT22;25453;48.162;14.510;2023-02-01T07:03:24;6.50;72.80
39777;DHT22;25453;48.162;14.510;2023-02-01T07:05:54;6.50;72.80
39777;DHT22;25453;48.162;14.510;2023-02-01T07:08:21;6.50;72.70
39777;DHT22;25453;48.162;14.510;2023-02-01T07:10:48;6.50;72.60
39777;DHT22;25453;48.162;14.510;2023-02-01T07:13:15;6.50;72.60
39777;DHT22;25453;48.162;14.510;2023-02-01T07:15:42;6.50;72.60
39777;DHT22;25453;48.162;14.510;2023-02-01T07:18:09;6.50;72.60
39777;DHT22;25453;48.162;14.510;2023-02-01T07:20:36;6.50;72.50
39777;DHT22;25453;48.162;14.510;2023-02-01T07:23:03;6.50;72.60
39777;DHT22;25453;48.162;14.510;2023-02-01T07:25:30;6.50;72.60
39777;DHT22;25453;48.162;14.510;2023-02-01T07:27:57;6.50;72.50
39777;DHT22;25453;48.162;14.510;2023-02-01T07:30:24;6.50;72.50
39777;DHT22;25453;48.162;14.510;2023-02-01T07:32:52;6.50;72.50
39777;DHT22;25453;48.162;14.510;2023-02-01T07:35:20;6.50;72.50
39777;DHT22;25453;48.162;14.510;2023-02-01T07:37:46;6.60;72.50
39777;DHT22;25453;48.162;14.510;2023-02-01T07:40:13;6.60;72.40
39777;DHT22;25453;48.162;14.510;2023-02-01T07:42:40;6.60;72.40
39777;DHT22;25453;48.162;14.510;2023-02-01T07:45:07;6.60;72.40
39777;DHT22;25453;48.162;14.510;2023-02-01T07:47:47;6.60;72.40
39777;DHT22;25453;48.162;14.510;2023-02-01T07:50:14;6.60;72.20
39777;DHT22;25453;48.162;14.510;2023-02-01T07:52:41;6.60;72.20
39777;DHT22;25453;48.162;14.510;2023-02-01T07:55:08;6.60;72.20
39777;DHT22;25453;48.162;14.510;2023-02-01T07:57:36;6.60;72.20
39777;DHT22;25453;48.162;14.510;2023-02-01T08:00:03;6.70;72.10
39777;DHT22;25453;48.162;14.510;2023-02-01T08:02:48;6.70;72.10
39777;DHT22;25453;48.162;14.510;2023-02-01T08:05:15;6.70;72.00
39777;DHT22;25453;48.162;14.510;2023-02-01T08:07:42;6.70;72.00
39777;DHT22;25453;48.162;14.510;2023-02-01T08:10:09;6.70;71.80
39777;DHT22;25453;48.162;14.510;2023-02-01T08:12:38;6.70;71.80
39777;DHT22;25453;48.162;14.510;2023-02-01T08:15:05;6.70;71.80
39777;DHT22;25453;48.162;14.510;2023-02-01T08:17:32;6.70;71.80
39777;DHT22;25453;48.162;14.510;2023-02-01T08:19:59;6.70;71.90
39777;DHT22;25453;48.162;14.510;2023-02-01T08:22:26;6.70;71.80
39777;DHT22;25453;48.162;14.510;2023-02-01T08:24:53;6.80;71.80
39777;DHT22;25453;48.162;14.510;2023-02-01T08:27:28;6.80;71.70
39777;DHT22;25453;48.162;14.510;2023-02-01T08:29:55;6.80;71.60
39777;DHT22;25453;48.162;14.510;2023-02-01T08:32:22;6.80;71.40
39777;DHT22;25453;48.162;14.510;2023-02-01T08:34:48;6.80;71.40
39777;DHT22;25453;48.162;14.510;2023-02-01T08:37:15;6.80;71.30
39777;DHT22;25453;48.162;14.510;2023-02-01T08:39:42;6.80;71.20
39777;DHT22;25453;48.162;14.510;2023-02-01T08:42:13;6.90;71.30
39777;DHT22;25453;48.162;14.510;2023-02-01T08:44:58;6.90;71.20
39777;DHT22;25453;48.162;14.510;2023-02-01T08:47:25;6.90;71.10
39777;DHT22;25453;48.162;14.510;2023-02-01T08:49:52;6.90;71.10
39777;DHT22;25453;48.162;14.510;2023-02-01T08:52:20;6.90;71.10
39777;DHT22;25453;48.162;14.510;2023-02-01T08:54:47;7.00;70.90
39777;DHT22;25453;48.162;14.510;2023-02-01T08:57:14;7.00;70.80
39777;DHT22;25453;48.162;14.510;2023-02-01T08:59:41;7.00;70.60
39777;DHT22;25453;48.162;14.510;2023-02-01T09:02:14;7.00;70.40
39777;DHT22;25453;48.162;14.510;2023-02-01T09:04:41;7.00;70.10
39777;DHT22;25453;48.162;14.510;2023-02-01T09:07:09;7.00;70.30
39777;DHT22;25453;48.162;14.510;2023-02-01T09:09:36;7.00;70.30
39777;DHT22;25453;48.162;14.510;2023-02-01T09:12:03;7.00;70.40
39777;DHT22;25453;48.162;14.510;2023-02-01T09:14:30;7.00;70.40
39777;DHT22;25453;48.162;14.510;2023-02-01T09:16:57;7.00;70.30
39777;DHT22;25453;48.162;14.510;2023-02-01T09:19:24;7.00;70.30
39777;DHT22;25453;48.162;14.510;2023-02-01T09:21:53;7.00;70.50
39777;DHT22;25453;48.162;14.510;2023-02-01T09:24:20;7.00;70.60
39777;DHT22;25453;48.162;14.510;2023-02-01T09:26:47;7.00;70.40
39777;DHT22;25453;48.162;14.510;2023-02-01T09:29:14;7.00;70.40
39777;DHT22;25453;48.162;14.510;2023-02-01T09:31:41;6.90;70.70
39777;DHT22;25453;48.162;14.510;2023-02-01T09:34:23;6.90;70.80
39777;DHT22;25453;48.162;14.510;2023-02-01T09:36:50;6.90;71.00
39777;DHT22;25453;48.162;14.510;2023-02-01T09:39:17;6.90;71.00
39777;DHT22;25453;48.162;14.510;2023-02-01T09:47:17;6.80;71.50
39777;DHT22;25453;48.162;14.510;2023-02-01T09:50:00;6.80;71.60
39777;DHT22;25453;48.162;14.510;2023-02-01T09:52:32;6.80;71.60
39777;DHT22;25453;48.162;14.510;2023-02-01T09:55:07;6.90;71.80
39777;DHT22;25453;48.162;14.510;2023-02-01T09:57:41;6.90;71.80
39777;DHT22;25453;48.162;14.510;2023-02-01T10:00:14;6.90;71.80
39777;DHT22;25453;48.162;14.510;2023-02-01T10:02:42;6.90;71.80
39777;DHT22;25453;48.162;14.510;2023-02-01T10:05:14;7.00;71.60
39777;DHT22;25453;48.162;14.510;2023-02-01T10:07:47;7.00;71.50
39777;DHT22;25453;48.162;14.510;2023-02-01T10:10:22;7.00;71.20
39777;DHT22;25453;48.162;14.510;2023-02-01T10:13:33;7.00;71.40
39777;DHT22;25453;48.162;14.510;2023-02-01T10:15:52;7.00;71.30
39777;DHT22;25453;48.162;14.510;2023-02-01T10:20:56;7.00;71.20
39777;DHT22;25453;48.162;14.510;2023-02-01T10:23:36;7.00;71.40
39777;DHT22;25453;48.162;14.510;2023-02-01T10:26:15;7.10;71.60
39777;DHT22;25453;48.162;14.510;2023-02-01T10:28:44;7.10;71.40
39777;DHT22;25453;48.162;14.510;2023-02-01T10:31:13;7.10;71.50
39777;DHT22;25453;48.162;14.510;2023-02-01T10:33:51;7.10;71.70
39777;DHT22;25453;48.162;14.510;2023-02-01T10:36:28;7.10;71.80
39777;DHT22;25453;48.162;14.510;2023-02-01T10:39:00;7.10;71.80
39777;DHT22;25453;48.162;14.510;2023-02-01T10:41:31;7.10;71.90
39777;DHT22;25453;48.162;14.510;2023-02-01T10:43:59;7.20;71.70
39777;DHT22;25453;48.162;14.510;2023-02-01T10:46:27;7.20;71.70
39777;DHT22;25453;48.162;14.510;2023-02-01T10:48:54;7.20;71.80
39777;DHT22;25453;48.162;14.510;2023-02-01T10:51:23;7.10;71.90
39777;DHT22;25453;48.162;14.510;2023-02-01T10:54:08;7.00;72.40
39777;DHT22;25453;48.162;14.510;2023-02-01T10:56:37;7.00;72.70
39777;DHT22;25453;48.162;14.510;2023-02-01T10:59:06;6.90;73.00
39777;DHT22;25453;48.162;14.510;2023-02-01T11:01:42;6.90;73.80
39777;DHT22;25453;48.162;14.510;2023-02-01T11:04:21;6.90;73.80
39777;DHT22;25453;48.162;14.510;2023-02-01T11:06:52;6.90;74.10
39777;DHT22;25453;48.162;14.510;2023-02-01T11:09:22;6.90;74.10
39777;DHT22;25453;48.162;14.510;2023-02-01T11:14:18;6.90;74.60
39777;DHT22;25453;48.162;14.510;2023-02-01T11:16:47;6.90;74.70
39777;DHT22;25453;48.162;14.510;2023-02-01T11:19:16;6.80;74.90
39777;DHT22;25453;48.162;14.510;2023-02-01T11:21:43;6.80;74.90
39777;DHT22;25453;48.162;14.510;2023-02-01T11:24:18;6.70;75.10
39777;DHT22;25453;48.162;14.510;2023-02-01T11:26:47;6.60;75.30
39777;DHT22;25453;48.162;14.510;2023-02-01T11:29:15;6.50;75.80
39777;DHT22;25453;48.162;14.510;2023-02-01T11:31:44;6.40;76.00
39777;DHT22;25453;48.162;14.510;2023-02-01T11:34:21;6.40;76.30
39777;DHT22;25453;48.162;14.510;2023-02-01T11:36:49;6.30;76.70
39777;DHT22;25453;48.162;14.510;2023-02-01T11:41:57;6.30;77.20
39777;DHT22;25453;48.162;14.510;2023-02-01T11:44:30;6.30;77.30
39777;DHT22;25453;48.162;14.510;2023-02-01T11:47:18;6.20;77.50
39777;DHT22;25453;48.162;14.510;2023-02-01T11:49:46;6.20;77.70
39777;DHT22;25453;48.162;14.510;2023-02-01T11:52:18;6.20;78.00
39777;DHT22;25453;48.162;14.510;2023-02-01T11:55:03;6.30;78.40
39777;DHT22;25453;48.162;14.510;2023-02-01T12:03:07;6.80;79.70
39777;DHT22;25453;48.162;14.510;2023-02-01T12:27:31;7.30;77.90
39777;DHT22;25453;48.162;14.510;2023-02-01T12:32:50;7.20;78.00
39777;DHT22;25453;48.162;14.510;2023-02-01T12:38:18;7.20;78.20
39777;DHT22;25453;48.162;14.510;2023-02-01T12:41:00;7.20;78.30
39777;DHT22;25453;48.162;14.510;2023-02-01T12:43:39;7.20;78.20
39777;DHT22;25453;48.162;14.510;2023-02-01T12:46:10;7.10;78.20
39777;DHT22;25453;48.162;14.510;2023-02-01T12:51:15;7.10;78.40
39777;DHT22;25453;48.162;14.510;2023-02-01T12:56:37;7.10;78.50
39777;DHT22;25453;48.162;14.510;2023-02-01T12:59:08;7.10;78.50
39777;DHT22;25453;48.162;14.510;2023-02-01T13:01:42;7.10;78.50
39777;DHT22;25453;48.162;14.510;2023-02-01T13:04:20;7.10;78.50
39777;DHT22;25453;48.162;14.510;2023-02-01T13:06:56;7.10;78.40
39777;DHT22;25453;48.162;14.510;2023-02-01T13:09:26;7.20;78.10
39777;DHT22;25453;48.162;14.510;2023-02-01T13:11:55;7.20;77.40
39777;DHT22;25453;48.162;14.510;2023-02-01T13:17:11;7.30;77.10
39777;DHT22;25453;48.162;14.510;2023-02-01T13:22:23;7.30;76.90
39777;DHT22;25453;48.162;14.510;2023-02-01T13:24:59;7.30;76.30
39777;DHT22;25453;48.162;14.510;2023-02-01T13:27:27;7.30;74.50
39777;DHT22;25453;48.162;14.510;2023-02-01T13:30:03;7.30;74.90
39777;DHT22;25453;48.162;14.510;2023-02-01T13:38:26;7.30;74.90
39777;DHT22;25453;48.162;14.510;2023-02-01T13:41:09;7.30;75.00
39777;DHT22;25453;48.162;14.510;2023-02-01T13:43:40;7.30;75.10
39777;DHT22;25453;48.162;14.510;2023-02-01T13:46:10;7.30;75.10
39777;DHT22;25453;48.162;14.510;2023-02-01T13:48:47;7.20;75.10
39777;DHT22;25453;48.162;14.510;2023-02-01T13:51:15;7.10;75.30
39777;DHT22;25453;48.162;14.510;2023-02-01T13:53:48;7.00;75.30
39777;DHT22;25453;48.162;14.510;2023-02-01T13:56:16;6.90;75.50
39777;DHT22;25453;48.162;14.510;2023-02-01T13:58:45;6.90;75.80
39777;DHT22;25453;48.162;14.510;2023-02-01T14:04:00;6.80;76.20
39777;DHT22;25453;48.162;14.510;2023-02-01T14:17:30;6.80;77.00
39777;DHT22;25453;48.162;14.510;2023-02-01T14:19:31;6.80;77.10
39777;DHT22;25453;48.162;14.510;2023-02-01T14:21:59;6.90;77.20
39777;DHT22;25453;48.162;14.510;2023-02-01T14:24:31;6.90;77.20
39777;DHT22;25453;48.162;14.510;2023-02-01T14:26:59;6.90;77.30
39777;DHT22;25453;48.162;14.510;2023-02-01T14:34:54;7.00;77.20
39777;DHT22;25453;48.162;14.510;2023-02-01T14:37:24;7.00;77.20
39777;DHT22;25453;48.162;14.510;2023-02-01T14:50:25;6.90;77.20
39777;DHT22;25453;48.162;14.510;2023-02-01T14:55:43;7.00;77.20
39777;DHT22;25453;48.162;14.510;2023-02-01T15:00:54;7.00;77.10
39777;DHT22;25453;48.162;14.510;2023-02-01T15:05:55;7.00;77.10
39777;DHT22;25453;48.162;14.510;2023-02-01T15:08:27;7.00;76.80
39777;DHT22;25453;48.162;14.510;2023-02-01T15:10:55;7.00;76.80
39777;DHT22;25453;48.162;14.510;2023-02-01T15:13:24;7.00;76.90
39777;DHT22;25453;48.162;14.510;2023-02-01T15:18:28;6.90;76.70
39777;DHT22;25453;48.162;14.510;2023-02-01T15:20:56;7.00;76.70
39777;DHT22;25453;48.162;14.510;2023-02-01T15:23:35;7.00;76.40
39777;DHT22;25453;48.162;14.510;2023-02-01T15:26:02;7.00;76.40
39777;DHT22;25453;48.162;14.510;2023-02-01T15:28:29;7.00;76.40
39777;DHT22;25453;48.162;14.510;2023-02-01T15:31:00;7.00;76.30
39777;DHT22;25453;48.162;14.510;2023-02-01T15:33:28;7.00;76.20
39777;DHT22;25453;48.162;14.510;2023-02-01T15:36:06;7.00;76.20
39777;DHT22;25453;48.162;14.510;2023-02-01T15:38:42;7.00;76.00
39777;DHT22;25453;48.162;14.510;2023-02-01T15:41:16;7.00;75.80
39777;DHT22;25453;48.162;14.510;2023-02-01T15:46:15;7.00;75.40
39777;DHT22;25453;48.162;14.510;2023-02-01T15:48:44;7.00;75.10
39777;DHT22;25453;48.162;14.510;2023-02-01T15:51:18;7.00;75.00
39777;DHT22;25453;48.162;14.510;2023-02-01T15:53:47;7.00;75.00
39777;DHT22;25453;48.162;14.510;2023-02-01T15:56:15;7.00;74.60
39777;DHT22;25453;48.162;14.510;2023-02-01T15:58:44;7.00;74.40
39777;DHT22;25453;48.162;14.510;2023-02-01T16:01:13;7.00;74.20
39777;DHT22;25453;48.162;14.510;2023-02-01T16:03:41;7.00;74.00
39777;DHT22;25453;48.162;14.510;2023-02-01T16:06:09;7.00;73.80
39777;DHT22;25453;48.162;14.510;2023-02-01T16:08:37;7.00;73.50
39777;DHT22;25453;48.162;14.510;2023-02-01T16:11:16;7.00;73.10
39777;DHT22;25453;48.162;14.510;2023-02-01T16:13:47;7.00;72.80
39777;DHT22;25453;48.162;14.510;2023-02-01T16:16:13;7.00;72.30
39777;DHT22;25453;48.162;14.510;2023-02-01T16:18:41;7.00;72.10
39777;DHT22;25453;48.162;14.510;2023-02-01T16:21:08;7.00;72.10
39777;DHT22;25453;48.162;14.510;2023-02-01T16:23:38;7.00;72.20
39777;DHT22;25453;48.162;14.510;2023-02-01T16:26:05;7.00;72.10
39777;DHT22;25453;48.162;14.510;2023-02-01T16:28:32;7.00;71.90
39777;DHT22;25453;48.162;14.510;2023-02-01T16:31:00;7.00;71.80
39777;DHT22;25453;48.162;14.510;2023-02-01T16:33:27;7.00;71.80
39777;DHT22;25453;48.162;14.510;2023-02-01T16:35:55;7.00;71.80
39777;DHT22;25453;48.162;14.510;2023-02-01T16:38:23;7.10;71.50
39777;DHT22;25453;48.162;14.510;2023-02-01T16:40:50;7.10;71.40
39777;DHT22;25453;48.162;14.510;2023-02-01T16:43:18;7.10;70.90
39777;DHT22;25453;48.162;14.510;2023-02-01T16:45:46;7.10;71.00
39777;DHT22;25453;48.162;14.510;2023-02-01T16:50:53;7.10;70.70
39777;DHT22;25453;48.162;14.510;2023-02-01T16:53:21;7.10;70.30
39777;DHT22;25453;48.162;14.510;2023-02-01T16:55:48;7.00;70.50
39777;DHT22;25453;48.162;14.510;2023-02-01T16:58:16;7.00;70.50
39777;DHT22;25453;48.162;14.510;2023-02-01T17:00:43;7.00;70.30
39777;DHT22;25453;48.162;14.510;2023-02-01T17:03:11;7.00;70.30
39777;DHT22;25453;48.162;14.510;2023-02-01T17:05:47;7.00;70.30
39777;DHT22;25453;48.162;14.510;2023-02-01T17:08:16;7.00;70.00
39777;DHT22;25453;48.162;14.510;2023-02-01T17:10:45;7.10;70.00
39777;DHT22;25453;48.162;14.510;2023-02-01T17:13:13;7.10;70.00
39777;DHT22;25453;48.162;14.510;2023-02-01T17:15:42;7.10;69.80
39777;DHT22;25453;48.162;14.510;2023-02-01T17:18:13;7.10;69.70
39777;DHT22;25453;48.162;14.510;2023-02-01T17:20:41;7.10;69.20
39777;DHT22;25453;48.162;14.510;2023-02-01T17:23:08;7.10;69.10
39777;DHT22;25453;48.162;14.510;2023-02-01T17:25:35;7.10;69.10
39777;DHT22;25453;48.162;14.510;2023-02-01T17:28:02;7.10;69.00
39777;DHT22;25453;48.162;14.510;2023-02-01T17:30:29;7.10;68.90
39777;DHT22;25453;48.162;14.510;2023-02-01T17:32:57;7.10;68.80
39777;DHT22;25453;48.162;14.510;2023-02-01T17:35:25;7.10;68.50
39777;DHT22;25453;48.162;14.510;2023-02-01T17:37:53;7.10;68.40
39777;DHT22;25453;48.162;14.510;2023-02-01T17:40:20;7.10;68.20
39777;DHT22;25453;48.162;14.510;2023-02-01T17:42:47;7.10;68.10
39777;DHT22;25453;48.162;14.510;2023-02-01T17:45:20;7.10;67.40
39777;DHT22;25453;48.162;14.510;2023-02-01T17:47:50;7.10;67.50
39777;DHT22;25453;48.162;14.510;2023-02-01T17:50:17;7.10;67.70
39777;DHT22;25453;48.162;14.510;2023-02-01T17:52:43;7.10;67.60
39777;DHT22;25453;48.162;14.510;2023-02-01T17:55:17;7.10;67.50
39777;DHT22;25453;48.162;14.510;2023-02-01T17:57:45;7.10;67.30
39777;DHT22;25453;48.162;14.510;2023-02-01T18:00:12;7.10;67.30